Etusivu
METAR-TAF:

METAR-TAF

Lentoasemat :

Camp Mabry

Austin, Texas, Yhdysvallat

Leveyspiiri: 30-19N, Pituuspiiri: 097-46W, korkeus merenpinnasta: 200 m

Tämänhetkinen sää

Tämä raportti tehtiin 19 minuuttia sitten, kello 09.51 UTC
Tuuli 3 kn eri suunnista
Lämpötila 26°C
Kosteus 79%
Ilmanpaine 1016 hPa
Näkyvyys: 16.1 km
Hajonneita pilviä 1500 ft:n korkeudessa

METAR: KATT 030951Z AUTO VRB03KT 10SM BKN015 26/22 A2999 RMK AO2 SLP137 T02560217

Aika: 05:10 (10:10 UTC)


TAF: puuttuu

Säähavainnot ja -ennusteet yli 4000 lentoasemalta (METAR- ja TAF-raportit).

Käytössä olevat sääasemat on merkitty karttaan keltaisilla ja punaisilla pisteillä.

Aseta hiiri pisteen päälle nähdäksesi sääaseman nimen.

Klikkaa sitten nähdäksesi säähavainnot ja -ennusteet.

Kartan vaihtaminen: klikkaa mustalla rastilla varustettuja vihreitä pisteitä, niin voit zoomata sisään; viivalla varustettua vihreää pistettä, niin voit zoomata ulos tai vihreitä nuolia, niin pääset viereisille kartoille.


METAR-TAF: